Felipe Yofre, Argentina
Current Conditions -  °F | °C
As of 5:00 PM on Monday 26 Jan 2015 (Local Time) from SARL Reporting Station
Scattered Clouds Scattered Clouds  
Wind Chill: 91°   Ceiling: Unl
Heat Index: 100°   Visibility: 6mi
Dew Point: 73°   Wind: 3mph
Humidity: 55%   Direction: 50°NE
Pressure: 29.74"   Gusts: NA
Location:  29.1°S, 58.33°W
Report Text: SARL 262000Z 05003KT 9999 SCT025 SCT20033/23 Q1007
Loading
Personal Weather Stations






























Interactive Weather Map New forecast layout! Learn more

10-Day Weather Forecast

Advertisements
Track Severe Weather on mobile